Time;durP1;ratioP1;P1;durP2;ratioP2;P2;SDS_P1;SDS_P2;PMS_P1;PMS_P2;Temp;Humidity;BMP_temperature;BMP_pressure;BME280_temperature;BME280_humidity;BME280_pressure;Samples;Min_cycle;Max_cycle;Signal;HPM_P1;HPM_P2
2022/10/22 00:00:12;;;;;;;4.85;2.75;;;14.80;99.90;;;;;;2092101;28;20033;-72
2022/10/22 00:01:13;;;;;;;5.03;3.40;;;14.80;99.90;;;;;;2091767;28;20338;-72
2022/10/22 00:02:18;;;;;;;7.35;2.92;;;14.80;99.90;;;;;;2089373;28;20078;-72
2022/10/22 00:03:19;;;;;;;4.95;2.95;;;14.80;99.90;;;;;;2088263;28;20029;-72
2022/10/22 00:04:19;;;;;;;8.15;2.90;;;14.70;99.90;;;;;;2092463;28;20025;-72
2022/10/22 00:05:20;;;;;;;6.20;2.92;;;14.70;99.90;;;;;;2090921;28;20507;-72
2022/10/22 00:06:20;;;;;;;7.43;3.03;;;14.70;99.90;;;;;;2090111;28;20111;-72
2022/10/22 00:07:21;;;;;;;5.95;2.47;;;14.70;99.90;;;;;;2091262;28;20412;-72
2022/10/22 00:08:22;;;;;;;6.03;2.83;;;14.70;99.90;;;;;;2091335;28;20126;-72
2022/10/22 00:09:22;;;;;;;6.85;3.05;;;14.70;99.90;;;;;;2092199;28;20013;-72
2022/10/22 00:10:23;;;;;;;7.57;2.80;;;14.70;99.90;;;;;;2090401;28;20079;-72
2022/10/22 00:11:24;;;;;;;2.90;2.40;;;14.70;99.90;;;;;;2089368;28;20055;-72
2022/10/22 00:12:25;;;;;;;6.35;2.70;;;14.70;99.90;;;;;;2092138;28;20132;-72
2022/10/22 00:13:25;;;;;;;10.05;3.13;;;14.70;99.90;;;;;;2091748;28;20024;-72
2022/10/22 00:14:26;;;;;;;5.15;2.50;;;14.70;99.90;;;;;;2092002;28;20029;-72
2022/10/22 00:15:26;;;;;;;5.72;2.28;;;14.70;99.90;;;;;;2091478;28;20070;-72
2022/10/22 00:16:27;;;;;;;5.50;2.20;;;14.70;99.90;;;;;;2091632;28;20040;-72
2022/10/22 00:17:27;;;;;;;3.95;2.42;;;14.70;99.90;;;;;;2091967;28;20050;-72
2022/10/22 00:18:28;;;;;;;5.10;2.95;;;14.70;99.90;;;;;;2091432;28;20032;-72
2022/10/22 00:19:28;;;;;;;4.30;2.40;;;14.70;99.90;;;;;;2090824;28;20037;-72
2022/10/22 00:20:29;;;;;;;10.07;2.55;;;14.70;99.90;;;;;;2090312;28;20029;-72
2022/10/22 00:21:29;;;;;;;3.28;2.33;;;14.80;99.90;;;;;;2091181;28;20021;-72
2022/10/22 00:22:30;;;;;;;10.25;2.83;;;14.70;99.90;;;;;;2089989;28;20070;-72
2022/10/22 00:23:31;;;;;;;7.47;2.80;;;14.80;99.90;;;;;;2090031;28;20033;-72
2022/10/22 00:24:33;;;;;;;6.22;2.70;;;14.70;99.90;;;;;;2090000;28;20108;-72
2022/10/22 00:25:35;;;;;;;5.50;2.75;;;14.80;99.90;;;;;;2089926;28;20371;-71
2022/10/22 00:26:35;;;;;;;3.72;2.38;;;14.80;99.90;;;;;;2091690;28;20796;-72
2022/10/22 00:27:36;;;;;;;9.25;2.85;;;14.80;99.90;;;;;;2093113;28;20405;-72
2022/10/22 00:28:37;;;;;;;9.27;2.85;;;14.80;99.90;;;;;;2092368;28;20028;-72
2022/10/22 00:29:37;;;;;;;5.13;2.47;;;14.80;99.90;;;;;;2090768;28;20017;-72
2022/10/22 00:30:38;;;;;;;11.52;3.63;;;14.80;99.90;;;;;;2090981;28;20119;-72
2022/10/22 00:31:38;;;;;;;4.03;2.70;;;14.80;99.90;;;;;;2091562;28;20032;-72
2022/10/22 00:32:39;;;;;;;12.30;3.42;;;14.80;99.90;;;;;;2091726;28;20031;-72
2022/10/22 00:33:39;;;;;;;6.35;2.55;;;14.80;99.90;;;;;;2090071;28;20029;-72
2022/10/22 00:34:40;;;;;;;3.70;2.60;;;14.80;99.90;;;;;;2091610;28;20480;-72
2022/10/22 00:35:40;;;;;;;6.80;2.75;;;14.80;99.90;;;;;;2090238;28;20099;-72
2022/10/22 00:36:41;;;;;;;7.72;3.22;;;14.80;99.90;;;;;;2089436;28;20435;-72
2022/10/22 00:37:41;;;;;;;9.48;3.33;;;14.80;99.90;;;;;;2092978;28;20115;-72
2022/10/22 00:38:42;;;;;;;5.93;3.03;;;14.80;99.90;;;;;;2090987;28;20492;-72
2022/10/22 00:39:42;;;;;;;3.33;2.80;;;14.80;99.90;;;;;;2090349;28;20802;-72
2022/10/22 00:40:43;;;;;;;8.90;3.53;;;14.90;99.90;;;;;;2090337;28;20127;-72
2022/10/22 00:41:45;;;;;;;8.80;3.00;;;14.80;99.90;;;;;;2091116;28;20124;-72
2022/10/22 00:42:46;;;;;;;8.75;2.63;;;14.90;99.90;;;;;;2090111;28;20024;-72
2022/10/22 00:44:01;;;;;;;6.40;2.60;;;14.90;99.90;;;;;;2092496;28;20021;-72
2022/10/22 00:45:03;;;;;;;8.77;2.80;;;14.90;99.90;;;;;;2092009;28;20392;-72
2022/10/22 00:46:04;;;;;;;8.30;3.00;;;14.90;99.90;;;;;;2090625;28;20028;-72
2022/10/22 00:47:05;;;;;;;6.25;2.70;;;14.90;99.90;;;;;;2090832;28;20025;-72
2022/10/22 00:48:11;;;;;;;4.45;2.70;;;14.90;99.90;;;;;;2092074;28;20126;-72
2022/10/22 00:49:12;;;;;;;5.03;2.72;;;14.90;99.90;;;;;;2091211;28;20076;-72
2022/10/22 00:50:43;;;;;;;5.85;2.85;;;14.90;99.90;;;;;;2090929;28;20492;-72
2022/10/22 00:51:44;;;;;;;4.30;2.60;;;14.90;99.90;;;;;;2091274;28;20378;-72
2022/10/22 00:52:46;;;;;;;5.40;2.78;;;14.90;99.90;;;;;;2091161;28;20097;-72
2022/10/22 00:53:54;;;;;;;8.93;2.50;;;14.90;99.90;;;;;;2090214;28;20033;-72
2022/10/22 00:54:56;;;;;;;4.05;2.63;;;14.90;99.90;;;;;;2092987;28;20566;-72
2022/10/22 00:55:57;;;;;;;4.85;2.80;;;14.90;99.90;;;;;;2091626;28;20127;-72
2022/10/22 00:56:58;;;;;;;5.80;3.15;;;14.90;99.90;;;;;;2092431;28;20488;-72
2022/10/22 00:58:00;;;;;;;7.43;3.30;;;14.90;99.90;;;;;;2096083;28;20024;-72
2022/10/22 00:59:01;;;;;;;10.07;2.67;;;15.00;99.90;;;;;;2094707;28;20033;-72
2022/10/22 01:00:04;;;;;;;6.55;2.70;;;15.00;99.90;;;;;;2093187;28;20068;-72
2022/10/22 01:01:07;;;;;;;5.80;2.60;;;15.00;99.90;;;;;;2092161;28;20020;-72
2022/10/22 01:02:08;;;;;;;3.85;2.60;;;15.00;99.90;;;;;;2091655;28;20029;-72
2022/10/22 01:03:08;;;;;;;6.13;3.30;;;15.00;99.90;;;;;;2090956;28;20029;-72
2022/10/22 01:04:09;;;;;;;8.10;3.67;;;15.00;99.90;;;;;;2091085;28;20032;-72
2022/10/22 01:05:10;;;;;;;9.43;3.63;;;15.00;99.90;;;;;;2092604;28;20045;-72
2022/10/22 01:06:22;;;;;;;5.57;2.78;;;15.00;99.90;;;;;;2091673;28;20089;-72
2022/10/22 01:07:24;;;;;;;7.03;2.88;;;15.00;99.90;;;;;;2091908;28;20024;-72
2022/10/22 01:08:40;;;;;;;6.18;3.42;;;15.00;99.90;;;;;;2091060;28;20048;-72
2022/10/22 01:09:46;;;;;;;4.80;3.35;;;15.00;99.90;;;;;;2089384;28;20021;-73
2022/10/22 01:11:13;;;;;;;6.57;3.05;;;15.00;99.90;;;;;;2090891;28;20135;-73
2022/10/22 01:12:43;;;;;;;8.50;2.97;;;15.00;99.90;;;;;;2092134;28;20055;-73
2022/10/22 01:13:57;;;;;;;5.07;3.38;;;15.00;99.90;;;;;;2090391;28;20035;-73
2022/10/22 01:15:14;;;;;;;8.10;3.22;;;15.00;99.90;;;;;;2090830;28;20025;-73
2022/10/22 01:16:34;;;;;;;6.55;2.97;;;15.00;99.90;;;;;;2089231;28;20135;-73
2022/10/22 01:17:40;;;;;;;4.72;3.13;;;15.00;99.90;;;;;;2091081;28;20017;-73
2022/10/22 01:19:05;;;;;;;7.57;2.70;;;15.00;99.90;;;;;;2091960;28;20029;-73
2022/10/22 01:20:37;;;;;;;5.13;3.15;;;15.00;99.90;;;;;;2090887;28;20067;-73
2022/10/22 01:21:49;;;;;;;10.07;3.50;;;14.90;99.90;;;;;;2092226;28;20063;-73
2022/10/22 01:23:20;;;;;;;8.43;3.10;;;15.00;99.90;;;;;;2092028;28;20020;-73
2022/10/22 01:24:42;;;;;;;6.03;3.30;;;14.90;99.90;;;;;;2091051;28;20023;-73
2022/10/22 01:26:14;;;;;;;9.48;3.05;;;14.90;99.90;;;;;;2090618;28;20017;-73
2022/10/22 01:27:42;;;;;;;5.07;3.20;;;15.00;99.90;;;;;;2090548;28;20025;-73
2022/10/22 01:29:07;;;;;;;9.38;2.97;;;14.90;99.90;;;;;;2090281;28;20029;-72
2022/10/22 01:30:11;;;;;;;7.50;3.30;;;14.90;99.90;;;;;;2089996;28;20017;-72
2022/10/22 01:31:14;;;;;;;5.68;2.75;;;14.90;99.90;;;;;;2091938;28;20036;-72
2022/10/22 01:32:22;;;;;;;8.77;3.30;;;15.00;99.90;;;;;;2089437;28;20431;-72
2022/10/22 01:33:25;;;;;;;5.70;3.17;;;15.00;99.90;;;;;;2093380;28;20094;-73
2022/10/22 01:34:28;;;;;;;10.50;3.08;;;15.00;99.90;;;;;;2091695;28;21205;-73
2022/10/22 01:35:33;;;;;;;8.00;3.92;;;15.00;99.90;;;;;;2092748;28;20112;-73
2022/10/22 01:36:36;;;;;;;10.20;3.35;;;15.00;99.90;;;;;;2090422;28;20039;-73
2022/10/22 01:37:48;;;;;;;5.47;3.22;;;15.00;99.90;;;;;;2092745;28;20122;-73
2022/10/22 01:38:50;;;;;;;5.60;2.58;;;15.00;99.90;;;;;;2090431;28;20029;-73
2022/10/22 01:39:51;;;;;;;5.07;3.40;;;15.00;99.90;;;;;;2090357;28;20061;-73
2022/10/22 01:40:53;;;;;;;9.15;3.20;;;15.00;99.90;;;;;;2089980;28;20032;-73
2022/10/22 01:41:55;;;;;;;8.05;2.70;;;15.00;99.90;;;;;;2089663;28;20772;-73
2022/10/22 01:42:58;;;;;;;8.80;2.83;;;15.00;99.90;;;;;;2090609;28;20116;-72
2022/10/22 01:43:58;;;;;;;9.43;3.08;;;15.00;99.90;;;;;;2089274;28;20504;-73
2022/10/22 01:44:59;;;;;;;6.70;3.30;;;15.10;99.90;;;;;;2090393;28;21577;-73
2022/10/22 01:46:03;;;;;;;9.43;3.00;;;15.00;99.90;;;;;;2090262;28;20368;-73
2022/10/22 01:47:14;;;;;;;7.05;3.53;;;15.10;99.90;;;;;;2089905;28;20148;-72
2022/10/22 01:48:37;;;;;;;9.50;3.08;;;15.00;99.90;;;;;;2090977;28;20048;-73
2022/10/22 01:50:01;;;;;;;6.32;2.85;;;15.10;99.90;;;;;;2089239;28;20439;-73
2022/10/22 01:51:36;;;;;;;6.60;3.40;;;15.00;99.90;;;;;;2091489;28;20043;-73
2022/10/22 01:52:58;;;;;;;6.43;3.28;;;15.00;99.90;;;;;;2090820;28;20408;-73
2022/10/22 01:54:38;;;;;;;6.57;2.95;;;15.00;99.90;;;;;;2090803;28;20040;-72
2022/10/22 01:56:09;;;;;;;8.43;2.80;;;15.00;99.90;;;;;;2072853;28;20022;-73
2022/10/22 01:57:40;;;;;;;10.80;3.35;;;15.00;99.90;;;;;;2072631;28;20201;-73
2022/10/22 01:59:05;;;;;;;11.02;3.58;;;15.00;99.90;;;;;;2089791;28;20055;-73
2022/10/22 02:00:13;;;;;;;7.47;3.10;;;15.00;99.90;;;;;;2091125;28;20021;-73
2022/10/22 02:01:41;;;;;;;6.60;2.80;;;15.00;99.90;;;;;;2091252;28;20097;-73
2022/10/22 02:02:58;;;;;;;8.80;2.78;;;15.00;99.90;;;;;;2090340;28;20035;-72
2022/10/22 02:04:13;;;;;;;6.47;2.45;;;15.00;99.90;;;;;;2090913;28;20025;-75
2022/10/22 02:05:31;;;;;;;8.05;3.08;;;15.00;99.90;;;;;;2089762;28;20131;-73
2022/10/22 02:06:35;;;;;;;4.32;2.88;;;15.00;99.90;;;;;;2091605;28;20473;-73
2022/10/22 02:07:50;;;;;;;6.32;3.13;;;15.00;99.90;;;;;;2090200;28;20044;-73
2022/10/22 02:08:53;;;;;;;4.53;2.55;;;15.00;99.90;;;;;;2091619;28;20036;-73
2022/10/22 02:09:55;;;;;;;5.28;2.33;;;15.00;99.90;;;;;;2089854;28;20396;-73
2022/10/22 02:10:57;;;;;;;9.75;3.10;;;15.00;99.90;;;;;;2093487;28;20024;-73
2022/10/22 02:12:02;;;;;;;4.97;2.80;;;15.00;99.90;;;;;;2092562;28;20025;-73
2022/10/22 02:13:06;;;;;;;5.75;2.75;;;15.00;99.90;;;;;;2091820;28;20027;-73
2022/10/22 02:14:09;;;;;;;7.03;2.50;;;15.00;99.90;;;;;;2090032;28;20048;-72
2022/10/22 02:15:13;;;;;;;6.10;2.60;;;15.00;99.90;;;;;;2090520;28;20025;-73
2022/10/22 02:16:23;;;;;;;5.85;2.47;;;15.00;99.90;;;;;;2091991;28;20423;-73
2022/10/22 02:17:27;;;;;;;6.63;3.20;;;15.00;99.90;;;;;;2090105;28;20024;-73
2022/10/22 02:18:31;;;;;;;6.95;2.40;;;15.00;99.90;;;;;;2089606;28;20029;-73
2022/10/22 02:19:51;;;;;;;8.30;3.00;;;15.00;99.90;;;;;;2092074;28;20020;-72
2022/10/22 02:20:53;;;;;;;4.90;2.42;;;15.00;99.90;;;;;;2091980;28;20083;-72
2022/10/22 02:21:54;;;;;;;11.18;2.95;;;15.00;99.90;;;;;;2089431;28;20040;-72
2022/10/22 02:22:55;;;;;;;8.80;2.70;;;15.00;99.90;;;;;;2091567;28;20051;-72
2022/10/22 02:23:56;;;;;;;6.05;2.38;;;15.00;99.90;;;;;;2089771;28;20507;-72
2022/10/22 02:24:57;;;;;;;7.07;2.80;;;15.00;99.90;;;;;;2089823;28;20737;-73
2022/10/22 02:26:08;;;;;;;4.63;2.65;;;15.00;99.90;;;;;;2089215;28;20099;-73
2022/10/22 02:27:18;;;;;;;10.50;2.83;;;15.00;99.90;;;;;;2091570;28;20071;-73
2022/10/22 02:28:24;;;;;;;4.90;2.83;;;15.00;99.90;;;;;;2090929;28;20699;-73
2022/10/22 02:29:29;;;;;;;7.68;2.70;;;15.00;99.90;;;;;;2090403;28;20020;-73
2022/10/22 02:30:32;;;;;;;5.25;2.80;;;14.90;99.90;;;;;;2091980;28;20032;-73
2022/10/22 02:31:37;;;;;;;4.05;3.03;;;14.90;99.90;;;;;;2089994;28;20021;-73
2022/10/22 02:32:58;;;;;;;8.93;3.22;;;14.90;99.90;;;;;;2090907;28;20024;-73
2022/10/22 02:34:06;;;;;;;13.10;3.00;;;14.90;99.90;;;;;;2089878;28;20065;-73
2022/10/22 02:35:12;;;;;;;13.82;3.17;;;14.90;99.90;;;;;;2090521;28;20013;-73
2022/10/22 02:36:14;;;;;;;4.70;2.70;;;14.90;99.90;;;;;;2091113;28;20013;-72
2022/10/22 02:37:17;;;;;;;6.03;2.85;;;14.90;99.90;;;;;;2090236;28;20067;-72
2022/10/22 02:38:19;;;;;;;7.57;3.00;;;14.90;99.90;;;;;;2091919;28;20036;-72
2022/10/22 02:39:20;;;;;;;7.68;2.75;;;14.90;99.90;;;;;;2089767;28;20028;-72
2022/10/22 02:40:22;;;;;;;5.05;2.83;;;14.80;99.90;;;;;;2089721;28;20027;-72
2022/10/22 02:41:23;;;;;;;7.90;2.53;;;14.90;99.90;;;;;;2090181;28;20053;-72
2022/10/22 02:42:25;;;;;;;5.47;2.70;;;14.80;99.90;;;;;;2090632;28;20017;-72
2022/10/22 02:43:27;;;;;;;3.85;2.33;;;14.80;99.90;;;;;;2093349;28;20030;-72
2022/10/22 02:44:28;;;;;;;10.40;3.22;;;14.80;99.90;;;;;;2090464;28;20322;-72
2022/10/22 02:45:29;;;;;;;6.25;2.58;;;14.80;99.90;;;;;;2091694;28;20036;-72
2022/10/22 02:46:29;;;;;;;3.53;2.78;;;14.80;99.90;;;;;;2090603;28;20605;-72
2022/10/22 02:47:30;;;;;;;6.40;2.72;;;14.80;99.90;;;;;;2088566;28;20024;-72
2022/10/22 02:48:30;;;;;;;4.28;2.33;;;14.80;99.90;;;;;;2089819;28;20028;-72
2022/10/22 02:49:31;;;;;;;6.80;3.30;;;14.80;99.90;;;;;;2090547;28;20052;-73
2022/10/22 02:50:31;;;;;;;8.88;2.60;;;14.80;99.90;;;;;;2090065;28;20082;-73
2022/10/22 02:51:32;;;;;;;7.70;2.53;;;14.80;99.90;;;;;;2089936;28;20473;-73
2022/10/22 02:52:32;;;;;;;7.68;2.78;;;14.80;99.90;;;;;;2091154;28;20106;-73
2022/10/22 02:53:33;;;;;;;9.27;3.00;;;14.80;99.90;;;;;;2091960;28;20528;-73
2022/10/22 02:54:33;;;;;;;5.70;2.25;;;14.70;99.90;;;;;;2088706;28;20028;-73
2022/10/22 02:55:34;;;;;;;9.32;3.05;;;14.70;99.90;;;;;;2089154;28;20055;-73
2022/10/22 02:56:34;;;;;;;4.40;2.30;;;14.70;99.90;;;;;;2091729;28;20032;-73
2022/10/22 02:57:35;;;;;;;6.38;3.00;;;14.70;99.90;;;;;;2088992;28;20064;-73
2022/10/22 02:58:35;;;;;;;12.93;2.58;;;14.70;99.90;;;;;;2089529;28;20418;-73
2022/10/22 02:59:36;;;;;;;8.35;3.60;;;14.70;99.90;;;;;;2090667;28;20483;-73
2022/10/22 03:00:36;;;;;;;3.17;2.20;;;14.70;99.90;;;;;;2089681;28;21631;-73
2022/10/22 03:01:37;;;;;;;8.00;2.80;;;14.70;99.90;;;;;;2090527;28;20033;-73
2022/10/22 03:02:38;;;;;;;6.70;3.20;;;14.70;99.90;;;;;;2089782;28;20028;-73
2022/10/22 03:03:38;;;;;;;5.50;2.78;;;14.70;99.90;;;;;;2089336;28;20108;-73
2022/10/22 03:04:39;;;;;;;8.18;2.97;;;14.70;99.90;;;;;;2091381;28;20021;-73
2022/10/22 03:05:39;;;;;;;10.43;2.85;;;14.70;99.90;;;;;;2092010;28;20032;-73
2022/10/22 03:06:42;;;;;;;7.53;2.90;;;14.70;99.90;;;;;;2091294;28;20107;-73
2022/10/22 03:07:43;;;;;;;4.32;2.67;;;14.70;99.90;;;;;;2092721;28;20017;-73
2022/10/22 03:08:43;;;;;;;9.70;3.25;;;14.60;99.90;;;;;;2094597;28;20025;-73
2022/10/22 03:09:44;;;;;;;5.38;2.90;;;14.60;99.90;;;;;;2095811;28;20051;-73
2022/10/22 03:10:45;;;;;;;4.10;2.78;;;14.60;99.90;;;;;;2089874;28;20036;-73
2022/10/22 03:11:45;;;;;;;6.13;2.67;;;14.60;99.90;;;;;;2090915;28;20025;-73
2022/10/22 03:12:47;;;;;;;5.97;2.88;;;14.60;99.90;;;;;;2092459;28;20052;-73
2022/10/22 03:13:47;;;;;;;5.82;2.78;;;14.60;99.90;;;;;;2092436;28;20032;-73
2022/10/22 03:14:48;;;;;;;7.70;2.70;;;14.60;99.90;;;;;;2093471;28;20131;-72
2022/10/22 03:15:49;;;;;;;9.35;3.13;;;14.60;99.90;;;;;;2090934;28;20476;-72
2022/10/22 03:16:50;;;;;;;12.18;3.33;;;14.60;99.90;;;;;;2096147;28;20592;-73
2022/10/22 03:17:50;;;;;;;6.57;3.03;;;14.60;99.90;;;;;;2096509;28;20094;-73
2022/10/22 03:18:51;;;;;;;5.60;2.70;;;14.60;99.90;;;;;;2091946;28;20029;-73
2022/10/22 03:19:51;;;;;;;6.78;3.17;;;14.60;99.90;;;;;;2091744;28;20032;-73
2022/10/22 03:21:08;;;;;;;9.07;3.35;;;14.60;99.90;;;;;;2091525;28;20039;-73
2022/10/22 03:22:20;;;;;;;4.45;2.50;;;14.60;99.90;;;;;;2091787;28;20184;-73
2022/10/22 03:23:21;;;;;;;6.78;2.95;;;14.50;99.90;;;;;;2091101;28;20028;-73
2022/10/22 03:24:27;;;;;;;9.75;2.90;;;14.50;99.90;;;;;;2092549;28;20032;-72
2022/10/22 03:25:33;;;;;;;6.60;3.38;;;14.50;99.90;;;;;;2089702;28;20079;-72
2022/10/22 03:26:34;;;;;;;6.13;3.30;;;14.50;99.90;;;;;;2091776;28;20529;-72
2022/10/22 03:27:36;;;;;;;7.53;2.88;;;14.50;99.90;;;;;;2089568;28;20021;-72
2022/10/22 03:28:39;;;;;;;8.10;3.63;;;14.50;99.90;;;;;;2090892;28;20598;-72
2022/10/22 03:29:41;;;;;;;7.97;3.55;;;14.50;99.90;;;;;;2091213;28;20047;-72
2022/10/22 03:30:42;;;;;;;5.25;3.03;;;14.50;99.90;;;;;;2094790;28;20422;-73
2022/10/22 03:31:42;;;;;;;5.57;3.05;;;14.50;99.90;;;;;;2093240;28;20071;-73
2022/10/22 03:32:43;;;;;;;7.70;2.92;;;14.50;99.90;;;;;;2084452;28;20060;-73
2022/10/22 03:33:43;;;;;;;10.40;3.28;;;14.50;99.90;;;;;;2090994;28;20024;-73
2022/10/22 03:34:44;;;;;;;8.18;3.13;;;14.50;99.90;;;;;;2091830;28;20618;-72
2022/10/22 03:35:46;;;;;;;11.65;3.22;;;14.50;99.90;;;;;;2092098;28;20020;-73
2022/10/22 03:36:48;;;;;;;5.53;3.00;;;14.50;99.90;;;;;;2091317;28;20427;-72
2022/10/22 03:37:49;;;;;;;9.77;3.22;;;14.50;99.90;;;;;;2092507;28;20032;-72
2022/10/22 03:38:50;;;;;;;11.32;3.25;;;14.40;99.90;;;;;;2091502;28;20029;-72
2022/10/22 03:39:52;;;;;;;9.80;3.40;;;14.50;99.90;;;;;;2089682;28;20033;-72
2022/10/22 03:40:53;;;;;;;5.30;2.67;;;14.50;99.90;;;;;;2091916;28;20056;-72
2022/10/22 03:41:53;;;;;;;6.82;2.55;;;14.40;99.90;;;;;;2092075;28;20036;-73
2022/10/22 03:42:54;;;;;;;6.82;3.42;;;14.40;99.90;;;;;;2091672;28;20036;-73
2022/10/22 03:43:56;;;;;;;4.38;2.90;;;14.40;99.90;;;;;;2091781;28;20421;-72
2022/10/22 03:44:56;;;;;;;6.07;3.05;;;14.40;99.90;;;;;;2091336;28;20021;-72
2022/10/22 03:45:57;;;;;;;10.05;3.45;;;14.40;99.90;;;;;;2092164;28;20033;-73
2022/10/22 03:46:57;;;;;;;7.70;3.38;;;14.40;99.90;;;;;;2091777;28;20033;-73
2022/10/22 03:47:58;;;;;;;9.43;3.40;;;14.40;99.90;;;;;;2090177;28;20059;-72
2022/10/22 03:48:58;;;;;;;10.55;3.08;;;14.40;99.90;;;;;;2090260;28;20423;-72
2022/10/22 03:49:59;;;;;;;9.75;3.30;;;14.40;99.90;;;;;;2090362;28;20055;-72
2022/10/22 03:50:59;;;;;;;7.90;2.95;;;14.40;99.90;;;;;;2093689;28;20687;-72
2022/10/22 03:52:08;;;;;;;10.07;3.35;;;14.30;99.90;;;;;;2091368;28;20377;-72
2022/10/22 03:53:09;;;;;;;7.63;2.83;;;14.30;99.90;;;;;;2090476;28;20021;-72
2022/10/22 03:54:10;;;;;;;5.60;2.90;;;14.30;99.90;;;;;;2091064;28;20476;-72
2022/10/22 03:55:10;;;;;;;6.18;2.88;;;14.30;99.90;;;;;;2090506;28;20396;-72
2022/10/22 03:56:11;;;;;;;5.80;2.67;;;14.30;99.90;;;;;;2090828;28;20025;-73
2022/10/22 03:57:12;;;;;;;7.85;3.30;;;14.30;99.90;;;;;;2091714;28;20737;-73
2022/10/22 03:58:13;;;;;;;5.03;2.60;;;14.30;99.90;;;;;;2092759;28;20021;-73
2022/10/22 03:59:13;;;;;;;5.03;2.80;;;14.30;99.90;;;;;;2090460;28;20158;-73
2022/10/22 04:00:14;;;;;;;7.63;2.78;;;14.30;99.90;;;;;;2090302;28;20532;-72
2022/10/22 04:01:15;;;;;;;9.02;2.97;;;14.30;99.90;;;;;;2093050;28;20028;-72
2022/10/22 04:02:15;;;;;;;6.30;2.85;;;14.30;99.90;;;;;;2092380;28;20544;-72
2022/10/22 04:03:16;;;;;;;6.35;3.25;;;14.30;99.90;;;;;;2091730;28;20558;-73
2022/10/22 04:04:16;;;;;;;2.70;2.33;;;14.30;99.90;;;;;;2093067;28;20048;-73
2022/10/22 04:05:17;;;;;;;6.78;2.50;;;14.20;99.90;;;;;;2093069;28;20029;-72
2022/10/22 04:06:18;;;;;;;10.32;3.55;;;14.20;99.90;;;;;;2091371;28;20261;-73
2022/10/22 04:07:18;;;;;;;4.78;3.13;;;14.20;99.90;;;;;;2091930;28;20016;-73
2022/10/22 04:08:19;;;;;;;9.73;3.10;;;14.20;99.90;;;;;;2093904;28;20044;-73
2022/10/22 04:09:19;;;;;;;9.35;3.17;;;14.20;99.90;;;;;;2091197;28;20421;-72
2022/10/22 04:10:20;;;;;;;6.45;3.00;;;14.20;99.90;;;;;;2092564;28;20112;-72
2022/10/22 04:11:21;;;;;;;9.02;3.10;;;14.20;99.90;;;;;;2092688;28;20028;-72
2022/10/22 04:12:21;;;;;;;5.15;2.40;;;14.20;99.90;;;;;;2093386;28;20443;-72
2022/10/22 04:13:22;;;;;;;4.00;2.53;;;14.20;99.90;;;;;;2090567;28;20119;-72
2022/10/22 04:14:23;;;;;;;5.80;2.97;;;14.20;99.90;;;;;;2091844;28;20021;-72
2022/10/22 04:15:26;;;;;;;8.45;3.95;;;14.20;99.90;;;;;;2090837;28;20020;-72
2022/10/22 04:16:29;;;;;;;5.10;2.95;;;14.20;99.90;;;;;;2090953;28;20037;-72
2022/10/22 04:17:35;;;;;;;9.98;3.45;;;14.10;99.90;;;;;;2091637;28;20472;-73
2022/10/22 04:18:36;;;;;;;6.32;3.15;;;14.20;99.90;;;;;;2090439;28;20029;-73
2022/10/22 04:19:37;;;;;;;6.57;3.10;;;14.10;99.90;;;;;;2091962;28;20021;-73
2022/10/22 04:20:37;;;;;;;6.80;3.38;;;14.10;99.90;;;;;;2092312;28;20032;-73
2022/10/22 04:21:38;;;;;;;7.80;3.38;;;14.10;99.90;;;;;;2091719;28;20089;-72
2022/10/22 04:22:38;;;;;;;4.70;3.15;;;14.10;99.90;;;;;;2091989;28;20070;-72
2022/10/22 04:23:44;;;;;;;5.10;2.75;;;14.10;99.90;;;;;;2092526;28;20661;-72
2022/10/22 04:24:45;;;;;;;8.98;3.75;;;14.10;99.90;;;;;;2091020;28;20016;-73
2022/10/22 04:25:45;;;;;;;8.20;3.67;;;14.10;99.90;;;;;;2090503;28;20127;-73
2022/10/22 04:26:46;;;;;;;7.53;2.83;;;14.10;99.90;;;;;;2091918;28;20028;-73
2022/10/22 04:27:46;;;;;;;6.90;3.15;;;14.10;99.90;;;;;;2091352;28;20036;-72
2022/10/22 04:28:48;;;;;;;13.35;4.00;;;14.00;99.90;;;;;;2091047;28;20024;-72
2022/10/22 04:29:49;;;;;;;7.28;3.78;;;14.10;99.90;;;;;;2089608;28;20059;-72
2022/10/22 04:30:49;;;;;;;9.85;4.35;;;14.00;99.90;;;;;;2090240;28;20053;-72
2022/10/22 04:31:50;;;;;;;5.57;3.70;;;14.00;99.90;;;;;;2095375;28;20038;-73
2022/10/22 04:32:50;;;;;;;8.38;3.25;;;14.00;99.90;;;;;;2094724;28;20032;-73
2022/10/22 04:33:56;;;;;;;8.25;3.38;;;14.10;99.90;;;;;;2092353;28;20031;-72
2022/10/22 04:34:57;;;;;;;9.15;3.67;;;14.00;99.90;;;;;;2091094;28;20028;-72
2022/10/22 04:35:57;;;;;;;8.60;3.78;;;14.00;99.90;;;;;;2090528;28;20036;-72
2022/10/22 04:36:58;;;;;;;6.00;3.60;;;14.00;99.90;;;;;;2091863;28;20044;-72
2022/10/22 04:37:58;;;;;;;6.05;2.97;;;14.00;99.90;;;;;;2092935;28;20021;-72
2022/10/22 04:39:00;;;;;;;8.25;3.60;;;14.00;99.90;;;;;;2092307;28;20024;-73
2022/10/22 04:40:01;;;;;;;3.50;3.20;;;14.00;99.90;;;;;;2091359;28;20041;-73
2022/10/22 04:41:16;;;;;;;10.00;3.50;;;14.00;99.90;;;;;;2090286;28;20028;-72
2022/10/22 04:42:17;;;;;;;7.35;3.53;;;14.00;99.90;;;;;;2090665;28;20061;-72
2022/10/22 04:43:17;;;;;;;5.22;3.17;;;14.00;99.90;;;;;;2089510;28;20040;-73
2022/10/22 04:44:18;;;;;;;4.50;3.33;;;14.00;99.90;;;;;;2090917;28;20029;-73
2022/10/22 04:45:18;;;;;;;8.77;3.58;;;14.00;99.90;;;;;;2091211;28;20056;-73
2022/10/22 04:46:19;;;;;;;6.85;4.00;;;14.00;99.90;;;;;;2089313;28;20017;-73
2022/10/22 04:47:20;;;;;;;7.05;3.67;;;14.00;99.90;;;;;;2090563;28;20016;-72
2022/10/22 04:48:20;;;;;;;6.60;4.05;;;14.00;99.90;;;;;;2091781;28;20020;-73
2022/10/22 04:49:21;;;;;;;9.38;4.20;;;14.00;99.90;;;;;;2091884;28;20392;-72
2022/10/22 04:50:21;;;;;;;6.78;3.67;;;14.00;99.90;;;;;;2089780;28;20400;-72
2022/10/22 04:51:24;;;;;;;6.60;3.90;;;14.00;99.90;;;;;;2091821;28;20399;-72
2022/10/22 04:52:24;;;;;;;7.00;3.92;;;14.00;99.90;;;;;;2091304;28;20438;-72
2022/10/22 04:53:25;;;;;;;6.55;3.67;;;14.00;99.90;;;;;;2091215;28;20052;-72
2022/10/22 04:54:26;;;;;;;4.93;3.67;;;14.00;99.90;;;;;;2089259;28;20104;-72
2022/10/22 04:55:26;;;;;;;7.32;4.00;;;14.00;99.90;;;;;;2091774;28;20767;-73
2022/10/22 04:56:29;;;;;;;8.60;3.92;;;14.00;99.90;;;;;;2092309;28;20028;-72
2022/10/22 04:57:30;;;;;;;5.90;4.05;;;14.00;99.90;;;;;;2091505;28;20027;-72
2022/10/22 04:58:30;;;;;;;8.13;3.78;;;14.00;99.90;;;;;;2092007;28;20028;-72
2022/10/22 04:59:31;;;;;;;8.48;3.85;;;14.00;99.90;;;;;;2090202;28;20483;-72
2022/10/22 05:00:31;;;;;;;6.80;4.22;;;14.00;99.90;;;;;;2091903;28;20036;-73
2022/10/22 05:01:41;;;;;;;7.57;4.07;;;14.00;99.90;;;;;;2092343;28;20559;-72
2022/10/22 05:02:43;;;;;;;6.45;4.10;;;14.00;99.90;;;;;;2091451;28;20052;-73
2022/10/22 05:03:44;;;;;;;4.93;3.90;;;14.00;99.90;;;;;;2091801;28;20087;-73
2022/10/22 05:04:45;;;;;;;7.85;4.00;;;14.00;99.90;;;;;;2092631;28;20017;-72
2022/10/22 05:05:45;;;;;;;6.22;4.15;;;14.00;99.90;;;;;;2090084;28;20059;-73
2022/10/22 05:06:46;;;;;;;7.82;4.07;;;14.00;99.90;;;;;;2090352;28;20079;-73
2022/10/22 05:07:47;;;;;;;11.10;3.70;;;14.00;99.90;;;;;;2092159;28;20025;-72
2022/10/22 05:08:52;;;;;;;6.63;4.00;;;14.00;99.90;;;;;;2092842;28;20082;-72
2022/10/22 05:09:53;;;;;;;15.68;5.05;;;14.10;99.90;;;;;;2090726;28;20025;-72
2022/10/22 05:10:53;;;;;;;8.38;3.90;;;14.00;99.90;;;;;;2091760;28;20025;-72
2022/10/22 05:11:54;;;;;;;7.93;4.03;;;14.10;99.90;;;;;;2091531;28;20063;-72
2022/10/22 05:12:54;;;;;;;7.80;3.90;;;14.10;99.90;;;;;;2090781;28;20557;-73
2022/10/22 05:13:56;;;;;;;8.38;4.53;;;14.10;99.90;;;;;;2092287;28;20514;-72
2022/10/22 05:14:57;;;;;;;6.18;3.67;;;14.10;99.90;;;;;;2091296;28;20033;-73
2022/10/22 05:16:00;;;;;;;7.75;4.18;;;14.10;99.90;;;;;;2093499;28;20133;-72
2022/10/22 05:17:01;;;;;;;9.30;3.72;;;14.10;99.90;;;;;;2089847;28;20039;-72
2022/10/22 05:18:02;;;;;;;7.60;4.18;;;14.10;99.90;;;;;;2098051;28;20024;-73
2022/10/22 05:19:03;;;;;;;6.32;3.70;;;14.10;99.90;;;;;;2098932;28;20649;-73
2022/10/22 05:20:04;;;;;;;7.55;4.10;;;14.20;99.90;;;;;;2089483;28;20072;-72
2022/10/22 05:21:10;;;;;;;13.23;4.50;;;14.20;99.90;;;;;;2093385;28;20165;-72
2022/10/22 05:22:11;;;;;;;9.88;4.75;;;14.20;99.90;;;;;;2092561;28;20606;-72
2022/10/22 05:23:11;;;;;;;6.70;3.90;;;14.20;99.90;;;;;;2089173;28;20697;-72
2022/10/22 05:24:12;;;;;;;8.80;4.07;;;14.20;99.90;;;;;;2095189;28;20051;-72
2022/10/22 05:25:13;;;;;;;9.32;4.32;;;14.30;99.90;;;;;;2092963;28;21111;-72
2022/10/22 05:26:16;;;;;;;8.45;4.63;;;14.20;99.90;;;;;;2090382;28;20024;-72
2022/10/22 05:27:17;;;;;;;6.95;4.25;;;14.30;99.90;;;;;;2089929;28;20024;-72
2022/10/22 05:28:17;;;;;;;15.30;4.95;;;14.30;99.90;;;;;;2089441;28;20143;-72
2022/10/22 05:29:18;;;;;;;6.90;4.20;;;14.30;99.90;;;;;;2092153;28;20029;-72
2022/10/22 05:30:19;;;;;;;9.45;4.07;;;14.30;99.90;;;;;;2091365;28;20031;-72
2022/10/22 05:31:19;;;;;;;5.63;4.00;;;14.30;99.90;;;;;;2090332;28;20480;-72
2022/10/22 05:32:20;;;;;;;6.57;4.00;;;14.30;99.90;;;;;;2092509;28;20037;-72